sensor_id;sensor_type;location;lat;lon;timestamp;pressure;altitude;pressure_sealevel;temperature;humidity
11542;BME280;5827;49.482;7.716;2022-09-12T00:01:22;98952.34;;;13.57;100.00
11542;BME280;5827;49.482;7.716;2022-09-12T00:03:25;98959.63;;;13.56;100.00
11542;BME280;5827;49.482;7.716;2022-09-12T00:05:26;98948.56;;;13.53;100.00
11542;BME280;5827;49.482;7.716;2022-09-12T00:07:28;98950.91;;;13.44;100.00
11542;BME280;5827;49.482;7.716;2022-09-12T00:09:29;98947.13;;;13.45;100.00
11542;BME280;5827;49.482;7.716;2022-09-12T00:11:31;98948.75;;;13.46;100.00
11542;BME280;5827;49.482;7.716;2022-09-12T00:13:32;98944.13;;;13.41;100.00
11542;BME280;5827;49.482;7.716;2022-09-12T00:15:38;98943.38;;;13.46;100.00
11542;BME280;5827;49.482;7.716;2022-09-12T00:17:40;98947.72;;;13.47;100.00
11542;BME280;5827;49.482;7.716;2022-09-12T00:19:41;98946.34;;;13.50;100.00
11542;BME280;5827;49.482;7.716;2022-09-12T00:21:43;98942.06;;;13.48;100.00
11542;BME280;5827;49.482;7.716;2022-09-12T00:23:45;98941.75;;;13.45;100.00
11542;BME280;5827;49.482;7.716;2022-09-12T00:25:47;98937.75;;;13.47;100.00
11542;BME280;5827;49.482;7.716;2022-09-12T00:27:48;98930.22;;;13.50;100.00
11542;BME280;5827;49.482;7.716;2022-09-12T00:29:50;98931.56;;;13.47;100.00
11542;BME280;5827;49.482;7.716;2022-09-12T00:31:53;98934.75;;;13.44;100.00
11542;BME280;5827;49.482;7.716;2022-09-12T00:33:56;98936.63;;;13.43;100.00
11542;BME280;5827;49.482;7.716;2022-09-12T00:36:03;98934.72;;;13.39;100.00
11542;BME280;5827;49.482;7.716;2022-09-12T00:38:05;98932.56;;;13.41;100.00
11542;BME280;5827;49.482;7.716;2022-09-12T00:40:07;98928.50;;;13.33;100.00
11542;BME280;5827;49.482;7.716;2022-09-12T00:42:09;98926.81;;;13.27;100.00
11542;BME280;5827;49.482;7.716;2022-09-12T00:44:47;98929.69;;;13.20;100.00
11542;BME280;5827;49.482;7.716;2022-09-12T00:46:53;98931.66;;;13.25;100.00
11542;BME280;5827;49.482;7.716;2022-09-12T00:48:59;98931.13;;;13.28;100.00
11542;BME280;5827;49.482;7.716;2022-09-12T00:51:02;98935.72;;;13.33;100.00
11542;BME280;5827;49.482;7.716;2022-09-12T00:53:05;98934.69;;;13.34;100.00
11542;BME280;5827;49.482;7.716;2022-09-12T00:55:12;98933.25;;;13.26;100.00
11542;BME280;5827;49.482;7.716;2022-09-12T00:57:17;98929.47;;;13.22;100.00
11542;BME280;5827;49.482;7.716;2022-09-12T00:59:21;98932.44;;;13.26;100.00
11542;BME280;5827;49.482;7.716;2022-09-12T01:01:24;98930.56;;;13.26;100.00
11542;BME280;5827;49.482;7.716;2022-09-12T01:03:27;98934.25;;;13.20;100.00
11542;BME280;5827;49.482;7.716;2022-09-12T01:05:30;98931.53;;;13.15;100.00
11542;BME280;5827;49.482;7.716;2022-09-12T01:07:34;98920.97;;;13.08;100.00
11542;BME280;5827;49.482;7.716;2022-09-12T01:09:37;98920.97;;;13.08;100.00
11542;BME280;5827;49.482;7.716;2022-09-12T01:11:39;98922.53;;;13.04;100.00
11542;BME280;5827;49.482;7.716;2022-09-12T01:13:42;98919.00;;;12.98;100.00
11542;BME280;5827;49.482;7.716;2022-09-12T01:15:44;98911.75;;;12.99;100.00
11542;BME280;5827;49.482;7.716;2022-09-12T01:17:57;98911.47;;;13.01;100.00
11542;BME280;5827;49.482;7.716;2022-09-12T01:20:20;98913.34;;;13.00;100.00
11542;BME280;5827;49.482;7.716;2022-09-12T01:22:41;98912.03;;;13.03;100.00
11542;BME280;5827;49.482;7.716;2022-09-12T01:25:00;98907.97;;;13.00;100.00
11542;BME280;5827;49.482;7.716;2022-09-12T01:27:25;98904.69;;;12.93;100.00
11542;BME280;5827;49.482;7.716;2022-09-12T01:32:17;98905.19;;;12.90;100.00
11542;BME280;5827;49.482;7.716;2022-09-12T01:34:23;98903.81;;;12.87;100.00
11542;BME280;5827;49.482;7.716;2022-09-12T01:36:38;98901.09;;;12.82;100.00
11542;BME280;5827;49.482;7.716;2022-09-12T01:38:45;98907.53;;;12.81;100.00
11542;BME280;5827;49.482;7.716;2022-09-12T01:40:55;98903.72;;;12.77;100.00
11542;BME280;5827;49.482;7.716;2022-09-12T01:43:04;98899.69;;;12.75;100.00
11542;BME280;5827;49.482;7.716;2022-09-12T01:45:13;98903.69;;;12.72;100.00
11542;BME280;5827;49.482;7.716;2022-09-12T01:47:21;98903.63;;;12.67;100.00
11542;BME280;5827;49.482;7.716;2022-09-12T01:49:26;98901.81;;;12.72;100.00
11542;BME280;5827;49.482;7.716;2022-09-12T01:51:32;98900.72;;;12.73;100.00
11542;BME280;5827;49.482;7.716;2022-09-12T01:53:40;98903.63;;;12.67;100.00
11542;BME280;5827;49.482;7.716;2022-09-12T01:55:45;98897.94;;;12.63;100.00
11542;BME280;5827;49.482;7.716;2022-09-12T01:57:52;98891.50;;;12.64;100.00
11542;BME280;5827;49.482;7.716;2022-09-12T01:59:58;98887.50;;;12.67;100.00
11542;BME280;5827;49.482;7.716;2022-09-12T02:02:02;98891.00;;;12.67;100.00
11542;BME280;5827;49.482;7.716;2022-09-12T02:04:11;98886.69;;;12.66;100.00
11542;BME280;5827;49.482;7.716;2022-09-12T02:06:18;98880.75;;;12.64;100.00
11542;BME280;5827;49.482;7.716;2022-09-12T02:08:25;98889.88;;;12.63;100.00
11542;BME280;5827;49.482;7.716;2022-09-12T02:10:31;98892.03;;;12.61;100.00
11542;BME280;5827;49.482;7.716;2022-09-12T02:12:37;98888.22;;;12.57;100.00
11542;BME280;5827;49.482;7.716;2022-09-12T02:14:42;98883.09;;;12.56;100.00
11542;BME280;5827;49.482;7.716;2022-09-12T02:16:49;98878.72;;;12.50;100.00
11542;BME280;5827;49.482;7.716;2022-09-12T02:18:54;98876.25;;;12.43;100.00
11542;BME280;5827;49.482;7.716;2022-09-12T02:21:00;98875.72;;;12.46;100.00
11542;BME280;5827;49.482;7.716;2022-09-12T02:23:07;98874.41;;;12.49;100.00
11542;BME280;5827;49.482;7.716;2022-09-12T02:25:12;98873.03;;;12.46;100.00
11542;BME280;5827;49.482;7.716;2022-09-12T02:27:20;98875.44;;;12.42;100.00
11542;BME280;5827;49.482;7.716;2022-09-12T02:29:22;98873.56;;;12.43;100.00
11542;BME280;5827;49.482;7.716;2022-09-12T02:31:27;98870.78;;;12.33;100.00
11542;BME280;5827;49.482;7.716;2022-09-12T02:33:39;98866.59;;;12.20;100.00
11542;BME280;5827;49.482;7.716;2022-09-12T02:35:47;98867.13;;;12.22;100.00
11542;BME280;5827;49.482;7.716;2022-09-12T02:37:55;98874.13;;;12.23;100.00
11542;BME280;5827;49.482;7.716;2022-09-12T02:39:58;98867.13;;;12.22;100.00
11542;BME280;5827;49.482;7.716;2022-09-12T02:42:01;98874.97;;;12.24;100.00
11542;BME280;5827;49.482;7.716;2022-09-12T02:44:03;98869.81;;;12.22;100.00
11542;BME280;5827;49.482;7.716;2022-09-12T02:46:07;98860.97;;;12.21;100.00
11542;BME280;5827;49.482;7.716;2022-09-12T02:48:14;98871.16;;;12.19;100.00
11542;BME280;5827;49.482;7.716;2022-09-12T02:50:17;98866.28;;;12.16;100.00
11542;BME280;5827;49.482;7.716;2022-09-12T02:52:19;98865.97;;;12.13;100.00
11542;BME280;5827;49.482;7.716;2022-09-12T02:54:22;98859.78;;;12.12;100.00
11542;BME280;5827;49.482;7.716;2022-09-12T02:56:28;98856.59;;;12.15;100.00
11542;BME280;5827;49.482;7.716;2022-09-12T02:58:31;98863.03;;;12.14;100.00
11542;BME280;5827;49.482;7.716;2022-09-12T03:00:35;98864.78;;;12.04;100.00
11542;BME280;5827;49.482;7.716;2022-09-12T03:02:52;98856.13;;;11.97;100.00
11542;BME280;5827;49.482;7.716;2022-09-12T03:05:07;98850.91;;;11.90;100.00
11542;BME280;5827;49.482;7.716;2022-09-12T03:07:15;98852.78;;;11.89;100.00
11542;BME280;5827;49.482;7.716;2022-09-12T03:09:29;98849.22;;;11.84;100.00
11542;BME280;5827;49.482;7.716;2022-09-12T03:11:50;98842.81;;;11.85;100.00
11542;BME280;5827;49.482;7.716;2022-09-12T03:14:05;98847.63;;;11.83;100.00
11542;BME280;5827;49.482;7.716;2022-09-12T03:16:14;98857.03;;;11.85;100.00
11542;BME280;5827;49.482;7.716;2022-09-12T03:18:23;98844.13;;;11.82;100.00
11542;BME280;5827;49.482;7.716;2022-09-12T03:20:41;98851.91;;;11.84;100.00
11542;BME280;5827;49.482;7.716;2022-09-12T03:22:51;98851.81;;;11.79;100.00
11542;BME280;5827;49.482;7.716;2022-09-12T03:25:02;98855.50;;;11.73;100.00
11542;BME280;5827;49.482;7.716;2022-09-12T03:27:09;98847.75;;;11.76;100.00
11542;BME280;5827;49.482;7.716;2022-09-12T03:29:14;98848.56;;;11.77;100.00
11542;BME280;5827;49.482;7.716;2022-09-12T03:31:18;98850.13;;;11.73;100.00
11542;BME280;5827;49.482;7.716;2022-09-12T03:33:22;98852.81;;;11.73;100.00
11542;BME280;5827;49.482;7.716;2022-09-12T03:35:24;98857.38;;;11.72;100.00
11542;BME280;5827;49.482;7.716;2022-09-12T03:37:25;98852.56;;;11.74;100.00
11542;BME280;5827;49.482;7.716;2022-09-12T03:39:27;98854.94;;;11.70;100.00
11542;BME280;5827;49.482;7.716;2022-09-12T03:41:30;98854.38;;;11.68;100.00
11542;BME280;5827;49.482;7.716;2022-09-12T03:43:31;98860.56;;;11.69;100.00
11542;BME280;5827;49.482;7.716;2022-09-12T03:45:32;98849.50;;;11.65;100.00
11542;BME280;5827;49.482;7.716;2022-09-12T03:47:34;98844.47;;;11.69;100.00
11542;BME280;5827;49.482;7.716;2022-09-12T03:49:36;98858.09;;;11.67;100.00
11542;BME280;5827;49.482;7.716;2022-09-12T03:51:38;98847.38;;;11.67;100.00
11542;BME280;5827;49.482;7.716;2022-09-12T03:53:40;98843.88;;;11.67;100.00
11542;BME280;5827;49.482;7.716;2022-09-12T03:55:41;98846.81;;;11.65;100.00
11542;BME280;5827;49.482;7.716;2022-09-12T03:57:44;98854.06;;;11.65;100.00
11542;BME280;5827;49.482;7.716;2022-09-12T03:59:47;98841.72;;;11.64;100.00
11542;BME280;5827;49.482;7.716;2022-09-12T04:01:48;98852.69;;;11.62;100.00
11542;BME280;5827;49.482;7.716;2022-09-12T04:03:51;98855.94;;;11.64;100.00
11542;BME280;5827;49.482;7.716;2022-09-12T04:05:52;98852.94;;;11.61;100.00
11542;BME280;5827;49.482;7.716;2022-09-12T04:07:54;98851.53;;;11.58;100.00
11542;BME280;5827;49.482;7.716;2022-09-12T04:09:55;98852.34;;;11.59;100.00
11542;BME280;5827;49.482;7.716;2022-09-12T04:11:56;98854.16;;;11.53;100.00
11542;BME280;5827;49.482;7.716;2022-09-12T04:13:59;98846.03;;;11.48;100.00
11542;BME280;5827;49.482;7.716;2022-09-12T04:16:01;98842.56;;;11.48;100.00
11542;BME280;5827;49.482;7.716;2022-09-12T04:18:03;98847.44;;;11.51;100.00
11542;BME280;5827;49.482;7.716;2022-09-12T04:20:05;98843.94;;;11.50;100.00
11542;BME280;5827;49.482;7.716;2022-09-12T04:22:07;98842.81;;;11.46;100.00
11542;BME280;5827;49.482;7.716;2022-09-12T04:24:08;98838.47;;;11.45;100.00
11542;BME280;5827;49.482;7.716;2022-09-12T04:26:10;98834.69;;;11.41;100.00
11542;BME280;5827;49.482;7.716;2022-09-12T04:28:12;98841.09;;;11.40;100.00
11542;BME280;5827;49.482;7.716;2022-09-12T04:30:15;98833.78;;;11.35;100.00
11542;BME280;5827;49.482;7.716;2022-09-12T04:32:17;98832.75;;;11.36;100.00
11542;BME280;5827;49.482;7.716;2022-09-12T04:34:19;98835.16;;;11.38;100.00
11542;BME280;5827;49.482;7.716;2022-09-12T04:36:20;98835.91;;;11.33;100.00
11542;BME280;5827;49.482;7.716;2022-09-12T04:38:22;98833.78;;;11.35;100.00
11542;BME280;5827;49.482;7.716;2022-09-12T04:40:23;98836.91;;;11.27;100.00
11542;BME280;5827;49.482;7.716;2022-09-12T04:42:25;98839.81;;;11.26;100.00
11542;BME280;5827;49.482;7.716;2022-09-12T04:44:26;98831.63;;;11.32;100.00
11542;BME280;5827;49.482;7.716;2022-09-12T04:46:31;98838.59;;;11.33;100.00
11542;BME280;5827;49.482;7.716;2022-09-12T04:48:33;98842.56;;;11.31;100.00
11542;BME280;5827;49.482;7.716;2022-09-12T04:50:34;98831.63;;;11.32;100.00
11542;BME280;5827;49.482;7.716;2022-09-12T04:52:35;98832.16;;;11.34;100.00
11542;BME280;5827;49.482;7.716;2022-09-12T04:54:37;98830.28;;;11.35;100.00
11542;BME280;5827;49.482;7.716;2022-09-12T04:56:40;98833.97;;;11.29;100.00
11542;BME280;5827;49.482;7.716;2022-09-12T04:58:42;98827.00;;;11.28;100.00
11542;BME280;5827;49.482;7.716;2022-09-12T05:00:44;98822.66;;;11.27;100.00
11542;BME280;5827;49.482;7.716;2022-09-12T05:02:47;98827.78;;;11.28;100.00
11542;BME280;5827;49.482;7.716;2022-09-12T05:04:48;98829.34;;;11.24;100.00
11542;BME280;5827;49.482;7.716;2022-09-12T05:06:50;98825.28;;;11.22;100.00
11542;BME280;5827;49.482;7.716;2022-09-12T05:08:52;98821.44;;;11.17;100.00
11542;BME280;5827;49.482;7.716;2022-09-12T05:10:55;98825.78;;;11.18;100.00
11542;BME280;5827;49.482;7.716;2022-09-12T05:12:56;98823.16;;;11.24;100.00
11542;BME280;5827;49.482;7.716;2022-09-12T05:14:57;98830.47;;;11.28;100.00
11542;BME280;5827;49.482;7.716;2022-09-12T05:17:00;98821.63;;;11.28;100.00
11542;BME280;5827;49.482;7.716;2022-09-12T05:19:03;98819.69;;;11.23;100.00
11542;BME280;5827;49.482;7.716;2022-09-12T05:21:06;98826.66;;;11.07;100.00
11542;BME280;5827;49.482;7.716;2022-09-12T05:23:08;98822.28;;;11.01;100.00
11542;BME280;5827;49.482;7.716;2022-09-12T05:25:09;98827.31;;;11.14;100.00
11542;BME280;5827;49.482;7.716;2022-09-12T05:27:11;98828.22;;;11.20;100.00
11542;BME280;5827;49.482;7.716;2022-09-12T05:29:12;98833.81;;;11.18;100.00
11542;BME280;5827;49.482;7.716;2022-09-12T05:31:15;98828.28;;;11.25;100.00
11542;BME280;5827;49.482;7.716;2022-09-12T05:33:17;98832.91;;;11.30;100.00
11542;BME280;5827;49.482;7.716;2022-09-12T05:35:20;98831.22;;;11.24;100.00
11542;BME280;5827;49.482;7.716;2022-09-12T05:37:21;98835.59;;;11.30;100.00
11542;BME280;5827;49.482;7.716;2022-09-12T05:39:23;98834.03;;;11.34;100.00
11542;BME280;5827;49.482;7.716;2022-09-12T05:41:26;98835.97;;;11.38;100.00
11542;BME280;5827;49.482;7.716;2022-09-12T05:43:28;98838.59;;;11.33;100.00
11542;BME280;5827;49.482;7.716;2022-09-12T05:45:30;98830.69;;;11.27;100.00
11542;BME280;5827;49.482;7.716;2022-09-12T05:47:31;98837.03;;;11.37;100.00
11542;BME280;5827;49.482;7.716;2022-09-12T05:49:34;98831.56;;;11.49;100.00
11542;BME280;5827;49.482;7.716;2022-09-12T05:51:40;98844.31;;;11.59;100.00
11542;BME280;5827;49.482;7.716;2022-09-12T05:53:42;98837.09;;;11.59;100.00
11542;BME280;5827;49.482;7.716;2022-09-12T05:55:43;98841.00;;;11.52;100.00
11542;BME280;5827;49.482;7.716;2022-09-12T05:57:44;98833.66;;;11.64;100.00
11542;BME280;5827;49.482;7.716;2022-09-12T05:59:46;98835.34;;;11.70;100.00
11542;BME280;5827;49.482;7.716;2022-09-12T06:01:48;98831.97;;;11.80;100.00
11542;BME280;5827;49.482;7.716;2022-09-12T06:03:54;98831.50;;;11.83;100.00
11542;BME280;5827;49.482;7.716;2022-09-12T06:05:55;98836.38;;;11.86;100.00
11542;BME280;5827;49.482;7.716;2022-09-12T06:07:58;98827.75;;;12.06;100.00
11542;BME280;5827;49.482;7.716;2022-09-12T06:10:00;98834.53;;;12.13;100.00
11542;BME280;5827;49.482;7.716;2022-09-12T06:12:02;98841.13;;;12.28;100.00
11542;BME280;5827;49.482;7.716;2022-09-12T06:14:04;98842.63;;;12.40;100.00
11542;BME280;5827;49.482;7.716;2022-09-12T06:16:07;98842.47;;;12.52;100.00
11542;BME280;5827;49.482;7.716;2022-09-12T06:18:09;98833.34;;;12.53;100.00
11542;BME280;5827;49.482;7.716;2022-09-12T06:20:11;98841.53;;;12.68;100.00
11542;BME280;5827;49.482;7.716;2022-09-12T06:22:13;98837.09;;;12.79;100.00
11542;BME280;5827;49.482;7.716;2022-09-12T06:24:16;98838.00;;;12.95;100.00
11542;BME280;5827;49.482;7.716;2022-09-12T06:26:18;98839.88;;;13.27;100.00
11542;BME280;5827;49.482;7.716;2022-09-12T06:28:20;98840.75;;;13.37;100.00
11542;BME280;5827;49.482;7.716;2022-09-12T06:30:22;98844.06;;;13.50;100.00
11542;BME280;5827;49.482;7.716;2022-09-12T06:32:23;98849.31;;;13.71;100.00
11542;BME280;5827;49.482;7.716;2022-09-12T06:34:25;98846.13;;;13.80;100.00
11542;BME280;5827;49.482;7.716;2022-09-12T06:36:28;98851.31;;;14.02;100.00
11542;BME280;5827;49.482;7.716;2022-09-12T06:38:30;98852.72;;;14.19;100.00
11542;BME280;5827;49.482;7.716;2022-09-12T06:40:33;98854.94;;;14.38;100.00
11542;BME280;5827;49.482;7.716;2022-09-12T06:42:35;98853.13;;;14.59;100.00
11542;BME280;5827;49.482;7.716;2022-09-12T06:44:36;98863.63;;;14.50;100.00
11542;BME280;5827;49.482;7.716;2022-09-12T06:46:38;98856.66;;;14.59;100.00
11542;BME280;5827;49.482;7.716;2022-09-12T06:48:39;98849.66;;;14.63;100.00
11542;BME280;5827;49.482;7.716;2022-09-12T06:50:41;98847.75;;;14.69;100.00
11542;BME280;5827;49.482;7.716;2022-09-12T06:52:42;98844.81;;;14.76;100.00
11542;BME280;5827;49.482;7.716;2022-09-12T06:54:44;98844.53;;;14.82;100.00
11542;BME280;5827;49.482;7.716;2022-09-12T06:56:48;98840.75;;;14.78;100.00
11542;BME280;5827;49.482;7.716;2022-09-12T06:58:50;98840.50;;;14.95;100.00
11542;BME280;5827;49.482;7.716;2022-09-12T07:00:52;98841.81;;;15.03;100.00
11542;BME280;5827;49.482;7.716;2022-09-12T07:02:54;98841.84;;;15.13;100.00
11542;BME280;5827;49.482;7.716;2022-09-12T07:04:55;98835.09;;;15.10;100.00
11542;BME280;5827;49.482;7.716;2022-09-12T07:06:57;98838.31;;;15.02;100.00
11542;BME280;5827;49.482;7.716;2022-09-12T07:08:59;98836.97;;;15.15;100.00
11542;BME280;5827;49.482;7.716;2022-09-12T07:11:07;98833.44;;;15.24;100.00
11542;BME280;5827;49.482;7.716;2022-09-12T07:13:11;98828.84;;;15.30;100.00
11542;BME280;5827;49.482;7.716;2022-09-12T07:15:13;98824.53;;;15.44;100.00
11542;BME280;5827;49.482;7.716;2022-09-12T07:17:15;98817.19;;;15.60;100.00
11542;BME280;5827;49.482;7.716;2022-09-12T07:19:17;98831.75;;;15.74;100.00
11542;BME280;5827;49.482;7.716;2022-09-12T07:21:19;98828.22;;;15.79;100.00
11542;BME280;5827;49.482;7.716;2022-09-12T07:23:20;98828.78;;;15.76;100.00
11542;BME280;5827;49.482;7.716;2022-09-12T07:25:21;98834.69;;;15.83;100.00
11542;BME280;5827;49.482;7.716;2022-09-12T07:27:23;98825.84;;;15.67;100.00
11542;BME280;5827;49.482;7.716;2022-09-12T07:29:26;98831.75;;;15.74;100.00
11542;BME280;5827;49.482;7.716;2022-09-12T07:31:27;98836.03;;;15.86;100.00
11542;BME280;5827;49.482;7.716;2022-09-12T07:33:29;98847.91;;;15.95;100.00
11542;BME280;5827;49.482;7.716;2022-09-12T07:35:32;98843.06;;;15.87;100.00
11542;BME280;5827;49.482;7.716;2022-09-12T07:37:33;98836.53;;;15.98;100.00
11542;BME280;5827;49.482;7.716;2022-09-12T07:39:35;98838.06;;;16.19;100.00
11542;BME280;5827;49.482;7.716;2022-09-12T07:41:36;98845.84;;;16.26;100.00
11542;BME280;5827;49.482;7.716;2022-09-12T07:43:38;98840.44;;;16.31;100.00
11542;BME280;5827;49.482;7.716;2022-09-12T07:45:41;98849.16;;;16.18;100.00
11542;BME280;5827;49.482;7.716;2022-09-12T07:47:42;98849.97;;;16.18;100.00
11542;BME280;5827;49.482;7.716;2022-09-12T07:49:44;98843.09;;;16.36;100.00
11542;BME280;5827;49.482;7.716;2022-09-12T07:51:46;98841.66;;;16.49;100.00
11542;BME280;5827;49.482;7.716;2022-09-12T07:53:48;98835.06;;;16.65;100.00
11542;BME280;5827;49.482;7.716;2022-09-12T07:55:54;98838.78;;;16.80;100.00
11542;BME280;5827;49.482;7.716;2022-09-12T07:57:55;98842.00;;;16.87;100.00
11542;BME280;5827;49.482;7.716;2022-09-12T07:59:57;98836.50;;;16.97;100.00
11542;BME280;5827;49.482;7.716;2022-09-12T08:02:00;98841.00;;;17.07;100.00
11542;BME280;5827;49.482;7.716;2022-09-12T08:04:03;98837.69;;;17.15;100.00
11542;BME280;5827;49.482;7.716;2022-09-12T08:06:06;98841.97;;;17.21;100.00
11542;BME280;5827;49.482;7.716;2022-09-12T08:08:08;98842.81;;;17.16;100.00
11542;BME280;5827;49.482;7.716;2022-09-12T08:10:10;98840.88;;;17.51;100.00
11542;BME280;5827;49.482;7.716;2022-09-12T08:12:11;98839.09;;;17.65;100.00
11542;BME280;5827;49.482;7.716;2022-09-12T08:14:13;98844.16;;;17.72;100.00
11542;BME280;5827;49.482;7.716;2022-09-12T08:16:18;98844.06;;;17.82;100.00
11542;BME280;5827;49.482;7.716;2022-09-12T08:18:22;98847.97;;;17.95;100.00
11542;BME280;5827;49.482;7.716;2022-09-12T08:20:24;98845.50;;;17.98;100.00
11542;BME280;5827;49.482;7.716;2022-09-12T08:22:25;98852.41;;;18.10;100.00
11542;BME280;5827;49.482;7.716;2022-09-12T08:24:27;98846.72;;;18.30;100.00
11542;BME280;5827;49.482;7.716;2022-09-12T08:26:29;98857.34;;;18.26;100.00
11542;BME280;5827;49.482;7.716;2022-09-12T08:28:31;98844.91;;;18.25;100.00
11542;BME280;5827;49.482;7.716;2022-09-12T08:30:33;98845.94;;;18.29;100.00
11542;BME280;5827;49.482;7.716;2022-09-12T08:32:35;98851.13;;;18.45;100.00
11542;BME280;5827;49.482;7.716;2022-09-12T08:34:38;98857.09;;;18.47;100.00
11542;BME280;5827;49.482;7.716;2022-09-12T08:36:39;98854.88;;;18.49;100.00
11542;BME280;5827;49.482;7.716;2022-09-12T08:38:43;98852.47;;;18.47;100.00
11542;BME280;5827;49.482;7.716;2022-09-12T08:40:49;98851.94;;;18.64;100.00
11542;BME280;5827;49.482;7.716;2022-09-12T08:42:59;98846.72;;;18.68;100.00
11542;BME280;5827;49.482;7.716;2022-09-12T08:45:10;98851.72;;;18.98;100.00
11542;BME280;5827;49.482;7.716;2022-09-12T08:47:20;98853.84;;;19.01;100.00
11542;BME280;5827;49.482;7.716;2022-09-12T08:49:27;98856.75;;;19.05;100.00
11542;BME280;5827;49.482;7.716;2022-09-12T08:51:32;98854.88;;;19.19;100.00
11542;BME280;5827;49.482;7.716;2022-09-12T08:53:35;98853.63;;;19.30;100.00
11542;BME280;5827;49.482;7.716;2022-09-12T08:55:40;98856.22;;;19.22;100.00
11542;BME280;5827;49.482;7.716;2022-09-12T08:57:42;98858.88;;;19.41;100.00
11542;BME280;5827;49.482;7.716;2022-09-12T08:59:45;98851.28;;;19.57;100.00
11542;BME280;5827;49.482;7.716;2022-09-12T09:01:49;98846.03;;;19.60;100.00
11542;BME280;5827;49.482;7.716;2022-09-12T09:04:07;98850.69;;;19.73;100.00
11542;BME280;5827;49.482;7.716;2022-09-12T09:06:21;98856.75;;;19.84;100.00
11542;BME280;5827;49.482;7.716;2022-09-12T09:08:40;98865.91;;;20.02;100.00
11542;BME280;5827;49.482;7.716;2022-09-12T09:10:47;98868.44;;;20.12;96.38
11542;BME280;5827;49.482;7.716;2022-09-12T09:12:58;98869.22;;;20.26;97.87
11542;BME280;5827;49.482;7.716;2022-09-12T09:15:11;98871.41;;;20.38;94.42
11542;BME280;5827;49.482;7.716;2022-09-12T09:17:25;98872.91;;;20.44;94.70
11542;BME280;5827;49.482;7.716;2022-09-12T09:19:33;98866.69;;;20.58;95.07
11542;BME280;5827;49.482;7.716;2022-09-12T09:21:41;98874.41;;;20.64;91.31
11542;BME280;5827;49.482;7.716;2022-09-12T09:23:48;98873.69;;;20.72;91.98
11542;BME280;5827;49.482;7.716;2022-09-12T09:25:55;98870.53;;;20.79;91.57
11542;BME280;5827;49.482;7.716;2022-09-12T09:28:03;98871.78;;;20.95;90.59
11542;BME280;5827;49.482;7.716;2022-09-12T09:30:12;98852.78;;;21.04;93.32
11542;BME280;5827;49.482;7.716;2022-09-12T09:32:21;98862.81;;;21.17;91.05
11542;BME280;5827;49.482;7.716;2022-09-12T09:34:28;98858.22;;;21.26;90.15
11542;BME280;5827;49.482;7.716;2022-09-12T09:36:35;98856.06;;;21.37;90.79
11542;BME280;5827;49.482;7.716;2022-09-12T09:38:47;98863.63;;;21.40;84.89
11542;BME280;5827;49.482;7.716;2022-09-12T09:40:59;98867.28;;;21.36;85.58
11542;BME280;5827;49.482;7.716;2022-09-12T09:43:11;98867.38;;;21.30;82.91
11542;BME280;5827;49.482;7.716;2022-09-12T09:45:20;98867.53;;;21.56;86.19
11542;BME280;5827;49.482;7.716;2022-09-12T09:47:23;98866.47;;;21.66;84.54
11542;BME280;5827;49.482;7.716;2022-09-12T09:49:26;98858.47;;;21.70;84.92
11542;BME280;5827;49.482;7.716;2022-09-12T09:51:34;98856.34;;;21.67;83.35
11542;BME280;5827;49.482;7.716;2022-09-12T09:53:40;98867.53;;;21.88;81.90
11542;BME280;5827;49.482;7.716;2022-09-12T09:55:47;98867.91;;;21.64;79.23
11542;BME280;5827;49.482;7.716;2022-09-12T09:57:50;98862.69;;;21.85;80.98
11542;BME280;5827;49.482;7.716;2022-09-12T09:59:52;98852.56;;;21.85;81.10
11542;BME280;5827;49.482;7.716;2022-09-12T10:01:55;98839.25;;;21.83;81.34
11542;BME280;5827;49.482;7.716;2022-09-12T10:04:02;98849.63;;;22.04;77.65
11542;BME280;5827;49.482;7.716;2022-09-12T10:06:07;98843.84;;;22.05;78.28
11542;BME280;5827;49.482;7.716;2022-09-12T10:08:22;98843.09;;;22.22;75.95
11542;BME280;5827;49.482;7.716;2022-09-12T10:10:25;98841.00;;;22.19;75.71
11542;BME280;5827;49.482;7.716;2022-09-12T10:12:28;98841.69;;;22.42;75.11
11542;BME280;5827;49.482;7.716;2022-09-12T10:14:36;98831.53;;;22.25;76.21
11542;BME280;5827;49.482;7.716;2022-09-12T10:16:48;98832.19;;;22.40;75.64
11542;BME280;5827;49.482;7.716;2022-09-12T10:18:53;98833.34;;;22.56;75.87
11542;BME280;5827;49.482;7.716;2022-09-12T10:20:54;98823.69;;;22.67;79.42
11542;BME280;5827;49.482;7.716;2022-09-12T10:22:58;98832.53;;;22.64;73.86
11542;BME280;5827;49.482;7.716;2022-09-12T10:25:10;98838.63;;;22.61;72.44
11542;BME280;5827;49.482;7.716;2022-09-12T10:27:15;98847.16;;;22.60;70.26
11542;BME280;5827;49.482;7.716;2022-09-12T10:29:23;98831.88;;;22.76;73.73
11542;BME280;5827;49.482;7.716;2022-09-12T10:31:27;98841.41;;;22.96;74.18
11542;BME280;5827;49.482;7.716;2022-09-12T10:33:32;98841.22;;;22.83;68.70
11542;BME280;5827;49.482;7.716;2022-09-12T10:35:46;98836.91;;;22.91;68.51
11542;BME280;5827;49.482;7.716;2022-09-12T10:37:51;98836.06;;;22.91;69.52
11542;BME280;5827;49.482;7.716;2022-09-12T10:39:55;98836.22;;;22.86;68.57
11542;BME280;5827;49.482;7.716;2022-09-12T10:41:58;98828.66;;;23.08;69.85
11542;BME280;5827;49.482;7.716;2022-09-12T10:44:05;98840.72;;;23.07;67.65
11542;BME280;5827;49.482;7.716;2022-09-12T10:46:27;98837.19;;;22.81;66.85
11542;BME280;5827;49.482;7.716;2022-09-12T10:48:30;98830.44;;;22.78;67.27
11542;BME280;5827;49.482;7.716;2022-09-12T10:50:35;98821.31;;;23.00;68.95
11542;BME280;5827;49.482;7.716;2022-09-12T10:52:39;98823.81;;;23.23;67.13
11542;BME280;5827;49.482;7.716;2022-09-12T10:54:40;98825.22;;;23.38;67.33
11542;BME280;5827;49.482;7.716;2022-09-12T10:56:49;98829.53;;;23.47;66.08
11542;BME280;5827;49.482;7.716;2022-09-12T10:59:06;98826.16;;;23.50;65.17
11542;BME280;5827;49.482;7.716;2022-09-12T11:01:18;98836.97;;;23.38;63.10
11542;BME280;5827;49.482;7.716;2022-09-12T11:03:38;98820.22;;;23.40;66.75
11542;BME280;5827;49.482;7.716;2022-09-12T11:05:52;98820.38;;;23.43;65.90